• Join FlightAware (Why Join?)
  • Login
  • US Flag 
09:36AM EST


 

Airport Tracker/Info


-or-


 

Live Flight TrackerFlight Track Log ✈ AAL1624 ✈ 06-May-2013 ✈ KLAX - KORD

Flight Track Log - Related Links

Times and Time Zones

All times are in EDT time to prevent confusion due to time zone crossing. See the AAL1624 flight status page for this flight to view local times or setup timezone preferences in your user account.

Time Position Orientation Groundspeed Altitude Reporting Facility
EDT Latitude Longitude Course Direction KTS MPH feet Rate Location/Type
06:19PM 33.9320 -118.4490 253° West 175 201 1,700  Level FlightAware
06:20PM 33.9240 -118.4640 237° Southwest 189 217 2,000 960 Climbing FlightAware
06:20PM 33.9150 -118.4720 216° Southwest 205 236 2,100 960 Climbing FlightAware
06:20PM 33.9010 -118.4750 190° South 221 254 2,400 1,200 Climbing FlightAware
06:20PM 33.8840 -118.4780 188° South 243 280 2,700 1,800 Climbing FlightAware
06:21PM 33.8540 -118.4870 194° South 254 292 3,600 2,460 Climbing FlightAware
06:21PM 33.8210 -118.4920 187° South 252 290 5,000 2,700 Climbing FlightAware
06:22PM 33.7870 -118.5000 191° South 256 295 6,300 2,460 Climbing FlightAware
06:22PM 33.7560 -118.5070 191° South 261 300 7,300 2,160 Climbing FlightAware
06:22PM 33.7260 -118.5120 188° South 275 316 8,100 2,220 Climbing FlightAware
06:23PM 33.7010 -118.5020 162° South 286 329 9,000 2,640 Climbing FlightAware
06:23PM 33.6820 -118.4690 125° Southeast 295 339 10,100 1,800 Climbing FlightAware
06:24PM 33.6610 -118.3970 109° East 338 389 11,100 1,800 Climbing FlightAware
06:25PM 33.6450 -118.3200 104° East 360 414 12,700 2,280 Climbing FlightAware
06:25PM 33.6450 -118.2250 90° East 381 438 14,400 2,280 Climbing FlightAware
06:26PM 33.6450 -118.1440 90° East 393 452 16,000 2,520 Climbing FlightAware
06:27PM 33.6450 -118.0500 90° East 404 465 17,800 2,220 Climbing FlightAware
06:27PM 33.6440 -117.9650 91° East 421 484 19,000 1,920 Climbing FlightAware
06:28PM 33.6440 -117.8530 90° East 440 506 20,600 2,100 Climbing FlightAware
06:29PM 33.6440 -117.7640 90° East 447 514 21,800 1,980 Climbing FlightAware
06:29PM 33.6440 -117.6530 90° East 455 524 23,300 1,860 Climbing FlightAware
06:30PM 33.6430 -117.5510 91° East 464 534 24,500 1,680 Climbing FlightAware
06:31PM 33.6430 -117.4460 90° East 474 545 25,600 1,500 Climbing FlightAware
06:32PM 33.6420 -117.3300 91° East 485 558 26,700 1,380 Climbing FlightAware
06:32PM 33.6410 -117.2210 91° East 495 570 27,600 1,320 Climbing FlightAware
06:33PM 33.6440 -117.0940 88° East 506 582 28,600 1,380 Climbing FlightAware
06:34PM 33.6640 -116.9850 78° East 512 589 29,600 1,320 Climbing FlightAware
06:34PM 33.6870 -116.8740 76° East 517 595 30,400 1,320 Climbing FlightAware
06:35PM 33.7120 -116.7490 76° East 519 597 31,500 1,440 Climbing FlightAware
06:36PM 33.7330 -116.6400 77° East 514 592 32,500 1,500 Climbing FlightAware
06:36PM 33.7540 -116.5330 77° East 512 589 33,500 1,260 Climbing FlightAware
06:37PM 33.7770 -116.4170 77° East 515 593 34,200 900 Climbing FlightAware
06:38PM 33.8070 -116.2600 77° East 517 595 35,000 480 Climbing FlightAware
06:39PM 33.8280 -116.1540 77° East 515 593 35,000  Level FlightAware
06:39PM 33.8470 -116.0600 76° East 515 593 35,000  Level FlightAware
06:40PM 33.8730 -115.9170 78° East 513 590 35,000  Level FlightAware
06:41PM 33.9010 -115.7710 77° East 514 592 35,000  Level FlightAware
06:42PM 33.9250 -115.6480 77° East 512 589 35,000  Level FlightAware
06:42PM 33.9430 -115.5530 77° East 512 589 35,000  Level FlightAware
06:43PM 33.9610 -115.4590 77° East 512 589 35,000  Level FlightAware
06:44PM 33.9790 -115.3640 77° East 512 589 35,000  Level FlightAware
06:44PM 33.9970 -115.2690 77° East 512 589 35,000  Level FlightAware
06:45PM 34.0200 -115.1510 77° East 512 589 35,000  Level FlightAware
06:46PM 34.0380 -115.0560 77° East 512 589 35,000  Level FlightAware
06:47PM 34.0560 -114.9620 77° East 512 589 35,000  Level FlightAware
06:47PM 34.0740 -114.8670 77° East 512 589 35,000  Level FlightAware
06:48PM 34.1250 -114.5990 77° East 35,000  Level FlightAware
06:49PM 34.1700 -114.4410 71° East 508 585 35,000  Level FlightAware
06:50PM 34.2060 -114.3130 71° East 509 586 35,000  Level FlightAware
06:50PM 34.2350 -114.2110 71° East 510 587 35,000  Level FlightAware
06:51PM 34.2670 -114.0960 71° East 512 589 35,000  Level FlightAware
06:52PM 34.2990 -113.9800 72° East 513 590 35,000  Level FlightAware
06:53PM 34.3290 -113.8680 72° East 511 588 35,000  Level FlightAware
06:53PM 34.3690 -113.7250 71° East 512 589 35,000  Level FlightAware
06:54PM 34.4000 -113.6110 72° East 510 587 35,000  Level FlightAware
06:55PM 34.4330 -113.4920 71° East 511 588 35,000  Level FlightAware
06:55PM 34.4620 -113.3830 72° East 511 588 35,000  Level FlightAware
06:56PM 34.4910 -113.2760 72° East 511 588 35,000  Level FlightAware
06:57PM 34.5250 -113.1500 72° East 510 587 35,000  Level FlightAware
06:58PM 34.5540 -113.0420 72° East 510 587 35,000  Level FlightAware
06:58PM 34.5860 -112.9210 72° East 510 587 35,000  Level FlightAware
06:59PM 34.6140 -112.8140 72° East 510 587 35,000  Level FlightAware
07:00PM 34.6440 -112.7040 72° East 510 587 35,000  Level FlightAware
07:00PM 34.6690 -112.6080 72° East 509 586 35,000  Level FlightAware
07:01PM 34.6940 -112.5140 72° East 508 585 35,000  Level FlightAware
07:02PM 34.7250 -112.3870 73° East 508 585 35,000  Level FlightAware
07:02PM 34.7490 -112.2790 75° East 508 585 35,000  Level FlightAware
07:03PM 34.7760 -112.1590 75° East 507 583 35,000  Level FlightAware
07:04PM 34.8020 -112.0470 74° East 508 585 35,000  Level FlightAware
07:04PM 34.8270 -111.9370 74° East 508 585 35,000  Level FlightAware
07:05PM 34.8540 -111.8150 75° East 508 585 35,000  Level FlightAware
07:06PM 34.8800 -111.7000 75° East 507 583 35,000  Level FlightAware
07:06PM 34.9050 -111.5910 74° East 507 583 35,000  Level FlightAware
07:07PM 34.9320 -111.4680 75° East 507 583 35,000  Level FlightAware
07:08PM 34.9560 -111.3580 75° East 505 581 35,000  Level FlightAware
07:09PM 34.9840 -111.2330 75° East 504 580 35,000  Level FlightAware
07:09PM 35.0070 -111.1240 76° East 503 579 35,000  Level FlightAware
07:10PM 35.0310 -111.0150 75° East 503 579 35,000  Level FlightAware
07:11PM 35.0580 -110.8920 75° East 504 580 35,000  Level FlightAware
07:11PM 35.0820 -110.7810 75° East 506 582 35,000  Level FlightAware
07:12PM 35.1090 -110.6540 75° East 508 585 35,000  Level FlightAware
07:13PM 35.1320 -110.5460 75° East 508 585 35,000  Level FlightAware
07:13PM 35.1590 -110.4220 75° East 506 582 35,000  Level FlightAware
07:14PM 35.1820 -110.3120 76° East 507 583 35,000  Level FlightAware
07:15PM 35.2040 -110.2060 76° East 507 583 35,000  Level FlightAware
07:16PM 35.2320 -110.0760 75° East 507 583 35,000  Level FlightAware
07:16PM 35.2550 -109.9620 76° East 506 582 35,000  Level FlightAware
07:17PM 35.2780 -109.8520 76° East 505 581 35,000  Level FlightAware
07:18PM 35.3030 -109.7300 76° East 504 580 35,000  Level FlightAware
07:18PM 35.3250 -109.6210 76° East 503 579 35,000  Level FlightAware
07:19PM 35.3450 -109.5230 76° East 502 578 35,000  Level FlightAware
07:20PM 35.3740 -109.3830 76° East 503 579 35,000  Level FlightAware
07:20PM 35.3960 -109.2750 76° East 502 578 35,000  Level FlightAware
07:21PM 35.4150 -109.1780 76° East 502 578 35,000  Level FlightAware
07:22PM 35.4350 -109.0840 75° East 502 578 35,000  Level FlightAware
07:23PM 35.4580 -108.9660 77° East 502 578 35,000  Level FlightAware
07:23PM 35.4920 -108.8150 75° East 500 575 35,000  Level FlightAware
07:24PM 35.5160 -108.7280 71° East 500 575 35,000  Level FlightAware
07:25PM 35.5480 -108.6140 71° East 500 575 35,000  Level FlightAware
07:25PM 35.5840 -108.4740 72° East 491 565 35,000  Level FlightAware
07:26PM 35.6130 -108.3670 72° East 489 563 35,000  Level FlightAware
07:27PM 35.6450 -108.2470 72° East 487 560 35,000  Level FlightAware
07:27PM 35.6730 -108.1420 72° East 485 558 35,000  Level FlightAware
07:28PM 35.7030 -108.0320 71° East 482 555 35,000  Level FlightAware
07:29PM 35.7380 -107.8980 72° East 480 552 35,000  Level FlightAware
07:30PM 35.7690 -107.7800 72° East 475 547 35,000  Level FlightAware
07:30PM 35.7980 -107.6680 72° East 474 545 35,000  Level FlightAware
07:31PM 35.8260 -107.5630 72° East 477 549 35,000  Level FlightAware
07:32PM 35.8570 -107.4450 72° East 482 555 35,000  Level FlightAware
07:33PM 35.8840 -107.3390 73° East 481 554 35,000  Level FlightAware
07:33PM 35.9110 -107.2350 72° East 479 551 35,000  Level FlightAware
07:34PM 35.9400 -107.1220 72° East 476 548 35,000  Level FlightAware
07:35PM 35.9660 -107.0210 72° East 474 545 35,000  Level FlightAware
07:35PM 35.9900 -106.9260 73° East 474 545 35,000  Level FlightAware
07:36PM 36.0210 -106.8020 73° East 473 544 35,000  Level FlightAware
07:37PM 36.0520 -106.6820 72° East 473 544 35,000  Level FlightAware
07:37PM 36.0760 -106.5860 73° East 474 545 35,000  Level FlightAware
07:38PM 36.1040 -106.4790 72° East 474 545 35,000 240 Level FlightAware
07:39PM 36.1320 -106.3630 73° East 494 568 35,400 300 Climbing FlightAware
07:40PM 36.1560 -106.2710 72° East 494 568 35,400  Level FlightAware
07:40PM 36.1800 -106.1800 72° East 494 568 35,400  Level FlightAware
07:41PM 36.2040 -106.0880 72° East 494 568 35,400  Level FlightAware
07:42PM 36.2340 -105.9740 72° East 494 568 35,400  Level FlightAware
07:42PM 36.2580 -105.8820 72° East 494 568 35,400  Level FlightAware
07:43PM 36.2820 -105.7900 72° East 494 568 35,400  Level FlightAware
07:44PM 36.3060 -105.6990 72° East 494 568 35,400  Level FlightAware
07:44PM 36.3300 -105.6070 72° East 494 568 35,400  Level FlightAware
07:45PM 36.3600 -105.4920 72° East 494 568 35,400  Level FlightAware
07:46PM 36.3840 -105.4010 72° East 494 568 35,400  Level FlightAware
07:47PM 36.4080 -105.3090 72° East 494 568 35,400  Level FlightAware
07:47PM 36.4320 -105.2170 72° East 494 568 35,400  Level FlightAware
07:48PM 36.4560 -105.1250 72° East 494 568 35,400 840 Level FlightAware
07:49PM 36.5242 -104.7839 72° East 456 525 37,000 720 Climbing Albuquerque Center
07:50PM 36.5778 -104.6358 66° East 461 531 37,000  Level Albuquerque Center
07:51PM 36.6306 -104.4908 66° East 458 527 37,000  Level Albuquerque Center
07:52PM 36.6800 -104.3553 66° East 458 527 37,000  Level Albuquerque Center
07:53PM 36.7383 -104.1944 66° East 458 527 37,000  Level Albuquerque Center
07:54PM 36.7881 -104.0569 66° East 456 525 37,000  Level Albuquerque Center
08:00PM 37.1128 -103.1370 66° East 467 537 37,000  Level FlightAware ADS-B
08:01PM 37.1398 -103.0590 67° East 467 537 37,000  Level FlightAware ADS-B
08:01PM 37.1659 -102.9840 66° East 467 537 37,000  Level FlightAware ADS-B
08:02PM 37.1917 -102.9090 67° East 466 536 37,000  Level FlightAware ADS-B
08:02PM 37.2180 -102.8330 66° East 466 536 37,000  Level FlightAware ADS-B
08:03PM 37.2484 -102.7450 67° East 466 536 37,000  Level FlightAware ADS-B
08:03PM 37.2754 -102.6660 67° East 465 535 37,000  Level FlightAware ADS-B
08:04PM 37.3131 -102.5600 67° East 465 535 37,000  Level Kansas City Center
08:05PM 37.3700 -102.3906 67° East 463 533 37,000  Level Albuquerque Center
08:06PM 37.4178 -102.2522 66° East 463 533 37,000  Level Albuquerque Center
08:07PM 37.4728 -102.0869 67° East 460 529 37,000  Level Albuquerque Center
08:08PM 37.5200 -101.9447 67° East 460 529 37,000  Level Albuquerque Center
08:10PM 37.5624 -101.7813 72° East  Level FlightAware Approximate
08:10PM 37.6150 -101.6581 72° East 463 533 37,000  Level Kansas City Center
08:12PM 37.6558 -101.4938 73° East  Level FlightAware Approximate
08:12PM 37.7161 -101.3494 73° East 457 526 37,000  Level Kansas City Center
08:14PM 37.7706 -101.1861 67° East 452 520 37,000  Level Kansas City Center
08:15PM 37.8164 -101.0442 68° East 450 518 37,000  Level Kansas City Center
08:16PM 37.8631 -100.9019 67° East 450 518 37,000  Level Kansas City Center
08:18PM 37.9510 -100.6145 67° East  Level FlightAware Approximate
08:20PM 38.0658 -100.2933 67° East 451 519 37,000  Level Kansas City Center
08:21PM 38.1122 -100.1544 67° East 447 514 37,000  Level Kansas City Center
08:22PM 38.1656 -99.9933 67° East 444 511 37,000  Level Kansas City Center
08:23PM 38.2111 -99.8550 67° East 444 511 37,000  Level Kansas City Center
08:25PM 38.2900 -99.5830 67° East  Level FlightAware Approximate
08:25PM 38.2912 -99.5971 68° East  Level FlightAware Approximate
08:26PM 38.3564 -99.4175 68° East 441 507 37,000  Level Kansas City Center
08:27PM 38.4044 -99.2722 67° East 443 510 37,000  Level Kansas City Center
08:28PM 38.4517 -99.1247 68° East 447 514 37,000  Level Kansas City Center
08:29PM 38.5000 -98.9783 67° East 448 516 37,000  Level Kansas City Center
08:30PM 38.5581 -98.7969 68° East 456 525 37,000  Level Kansas City Center
08:31PM 38.6056 -98.6481 68° East 452 520 37,000  Level Kansas City Center
08:32PM 38.6525 -98.4994 68° East 450 518 37,000  Level Kansas City Center
08:34PM 38.7135 -98.2739 71° East  Level FlightAware Approximate
08:35PM 38.7933 -98.0519 71° East 449 517 37,000  Level Kansas City Center
08:36PM 38.8389 -97.9031 69° East 447 514 37,000  Level Kansas City Center
08:37PM 38.8894 -97.7436 68° East 442 509 37,000  Level Kansas City Center
08:38PM 38.9339 -97.6003 68° East 449 517 37,000  Level Kansas City Center
08:39PM 38.9778 -97.4242 72° East 456 525 37,000  Level Kansas City Center
08:40PM 39.0156 -97.2811 71° East 451 519 37,000  Level Kansas City Center
08:42PM 39.0639 -97.0859 72° East  Level FlightAware Approximate
08:42PM 39.1017 -96.9606 72° East 458 527 37,000  Level Kansas City Center
08:48PM 39.3070 -96.1450 72° East 459 528 37,000  Level FlightAware
08:49PM 39.3340 -96.0380 72° East 460 529 37,000  Level FlightAware
08:50PM 39.3630 -95.9220 72° East 460 529 37,000  Level FlightAware
08:50PM 39.3980 -95.7820 72° East 460 529 37,000  Level FlightAware
08:51PM 39.4280 -95.6610 72° East 458 527 37,000  Level FlightAware
08:52PM 39.4510 -95.5660 73° East 457 526 37,000  Level FlightAware
08:53PM 39.4790 -95.4530 72° East 455 524 37,000  Level FlightAware
08:53PM 39.5110 -95.3220 72° East 454 522 37,000  Level FlightAware
08:54PM 39.5370 -95.2140 73° East 454 522 37,000  Level FlightAware
08:55PM 39.5690 -95.0790 73° East 451 519 37,000  Level FlightAware
08:55PM 39.5930 -94.9790 73° East 450 518 37,000  Level FlightAware
08:56PM 39.6150 -94.8880 73° East 449 517 37,000  Level FlightAware
08:57PM 39.6430 -94.7720 73° East 449 517 37,000  Level FlightAware
08:58PM 39.6700 -94.6570 73° East 447 514 37,000  Level FlightAware
08:58PM 39.6930 -94.5570 73° East 445 512 37,000  Level FlightAware
08:59PM 39.7370 -94.3690 73° East 444 511 37,000  Level FlightAware
09:00PM 39.7640 -94.2520 73° East 443 510 37,000  Level FlightAware
09:00PM 39.7880 -94.1510 73° East 442 509 37,000  Level FlightAware
09:01PM 39.8120 -94.0480 73° East 442 509 37,000  Level FlightAware
09:02PM 39.8370 -93.9370 74° East 442 509 37,000  Level FlightAware
09:02PM 39.8610 -93.8340 73° East 442 509 37,000  Level FlightAware
09:03PM 39.8870 -93.7160 74° East 443 510 37,000  Level FlightAware
09:04PM 39.9100 -93.6160 73° East 441 507 37,000  Level FlightAware
09:04PM 39.9330 -93.5130 74° East 440 506 37,000  Level FlightAware
09:05PM 39.9580 -93.4010 74° East 440 506 37,000  Level FlightAware
09:06PM 39.9780 -93.3130 73° East 440 506 37,000  Level FlightAware
09:07PM 40.0050 -93.1880 74° East 440 506 37,000  Level FlightAware
09:07PM 40.0290 -93.0800 74° East 439 505 37,000  Level FlightAware
09:08PM 40.0510 -92.9780 74° East 439 505 37,000  Level FlightAware
09:09PM 40.0750 -92.8680 74° East 436 502 37,000  Level FlightAware
09:09PM 40.0970 -92.7670 74° East 435 501 37,000  Level FlightAware
09:10PM 40.1220 -92.6510 74° East 434 499 37,000  Level FlightAware
09:11PM 40.1490 -92.5530 70° East 433 498 37,000  Level FlightAware
09:11PM 40.1830 -92.4600 64° Northeast 433 498 37,000  Level FlightAware
09:12PM 40.2220 -92.3510 65° Northeast 439 505 37,000 -240 Level FlightAware
09:13PM 40.2620 -92.2410 64° Northeast 441 507 36,700 -960 Descending FlightAware
09:14PM 40.3080 -92.1110 65° Northeast 440 506 35,400 -960 Descending FlightAware
09:15PM 40.3490 -91.9990 64° Northeast 428 493 35,100 -300 Descending FlightAware
09:15PM 40.3880 -91.8870 65° Northeast 434 499 35,000 -120 Descending FlightAware
09:16PM 40.4270 -91.7790 65° Northeast 437 503 35,000  Level FlightAware
09:17PM 40.4530 -91.7050 65° Northeast 437 503 35,000 -240 Level FlightAware
09:18PM 40.4960 -91.5720 67° East 437 503 34,700 -720 Descending FlightAware
09:18PM 40.5280 -91.4780 66° East 438 504 34,000 -1,320 Descending FlightAware
09:19PM 40.5610 -91.3810 66° East 435 501 33,000 -780 Descending FlightAware
09:20PM 40.5940 -91.2860 65° Northeast 436 502 33,000  Level FlightAware
09:20PM 40.6310 -91.1780 66° East 438 504 33,000  Level FlightAware
09:21PM 40.6680 -91.0700 66° East 438 504 33,000  Level FlightAware
09:22PM 40.7030 -90.9660 66° East 438 504 33,000  Level FlightAware
09:23PM 40.7470 -90.8370 66° East 438 504 33,000 -360 Level FlightAware
09:24PM 40.7940 -90.6970 66° East 437 503 32,400 -780 Descending FlightAware
09:24PM 40.8310 -90.5860 66° East 440 506 31,700 -960 Descending FlightAware
09:25PM 40.8620 -90.4950 66° East 443 510 31,100 -960 Descending FlightAware
09:26PM 40.8990 -90.3820 67° East 444 511 30,400 -1,020 Descending FlightAware
09:26PM 40.9340 -90.2780 66° East 447 514 29,700 -1,080 Descending FlightAware
09:27PM 40.9670 -90.1780 66° East 443 510 29,000 -1,020 Descending FlightAware
09:28PM 41.0020 -90.0710 67° East 440 506 28,300 -1,020 Descending FlightAware
09:29PM 41.0350 -89.9710 66° East 438 504 27,600 -1,080 Descending FlightAware
09:29PM 41.0680 -89.8720 66° East 436 502 26,900 -1,080 Descending FlightAware
09:30PM 41.1040 -89.7600 67° East 430 495 26,100 -1,200 Descending FlightAware
09:31PM 41.1350 -89.6660 66° East 422 486 25,200 -1,800 Descending FlightAware
09:31PM 41.1710 -89.5610 65° Northeast 410 472 23,600 -2,100 Descending FlightAware
09:32PM 41.2060 -89.4750 62° Northeast 406 467 22,300 -1,980 Descending FlightAware
09:33PM 41.2470 -89.3730 62° Northeast 399 459 20,800 -1,920 Descending FlightAware
09:33PM 41.2790 -89.2930 62° Northeast 391 450 19,600 -1,920 Descending FlightAware
09:34PM 41.3150 -89.2050 61° Northeast 382 440 18,300 -1,980 Descending FlightAware
09:35PM 41.3480 -89.1220 62° Northeast 377 434 17,000 -1,860 Descending FlightAware
09:36PM 41.3830 -89.0330 62° Northeast 371 427 15,700 -1,800 Descending FlightAware
09:36PM 41.4150 -88.9540 62° Northeast 365 420 14,500 -1,860 Descending FlightAware
09:37PM 41.4510 -88.8620 62° Northeast 356 410 13,100 -1,860 Descending FlightAware
09:38PM 41.4820 -88.7860 61° Northeast 345 397 11,900 -1,560 Descending FlightAware
09:38PM 41.5130 -88.7060 63° Northeast 331 381 10,900 -720 Descending FlightAware
09:39PM 41.5400 -88.6380 62° Northeast 290 334 10,900  Level FlightAware
09:40PM 41.5640 -88.5760 63° Northeast 280 322 10,900 -360 Level FlightAware
09:40PM 41.5890 -88.5050 65° Northeast 281 323 10,400 -960 Descending FlightAware
09:41PM 41.6000 -88.4670 69° East 277 319 9,800 -1,440 Descending FlightAware
09:41PM 41.6140 -88.4190 69° East 274 315 9,100 -1,440 Descending FlightAware
09:42PM 41.6280 -88.3730 68° East 272 313 8,400 -1,320 Descending FlightAware
09:42PM 41.6400 -88.3310 69° East 269 310 7,900 -600 Descending FlightAware
09:43PM 41.6540 -88.2850 68° East 267 307 7,900 -180 Level FlightAware
09:43PM 41.6600 -88.2630 70° East 266 306 7,800 -1,380 Descending FlightAware
09:43PM 41.6770 -88.2260 58° Northeast 271 312 7,000 -1,020 Descending FlightAware
09:44PM 41.7040 -88.1940 41° Northeast 269 310 6,900 -600 Descending FlightAware
09:44PM 41.7270 -88.1660 42° Northeast 269 310 6,500 -1,440 Descending FlightAware
09:45PM 41.7550 -88.1330 41° Northeast 269 310 5,600 -1,500 Descending FlightAware
09:45PM 41.7820 -88.1010 41° Northeast 257 296 5,000 -1,320 Descending FlightAware
09:46PM 41.8060 -88.0740 40° Northeast 249 287 4,400 -1,320 Descending FlightAware
09:46PM 41.8300 -88.0450 42° Northeast 240 276 3,800 -1,320 Descending FlightAware
09:47PM 41.8500 -88.0220 41° Northeast 228 262 3,200 -1,320 Descending FlightAware
09:47PM 41.8730 -87.9940 42° Northeast 207 238 2,600 -1,140 Descending FlightAware
09:48PM 41.8890 -87.9750 41° Northeast 184 212 2,200 -1,020 Descending FlightAware
09:48PM 41.9090 -87.9520 41° Northeast 162 186 1,700 -840 Descending FlightAware
09:49PM 41.9230 -87.9350 42° Northeast 136 157 1,400 -660 Descending FlightAware
09:49PM 41.9340 -87.9220 41° Northeast 135 155 1,100 -720 Descending FlightAware
09:49PM 41.9390 -87.9170 37° Northeast 139 160 1,000 -840 Descending FlightAware
09:50PM 41.9560 -87.8960 43° Northeast 144 166 500 -900 Descending FlightAware